^^
Datos históricos de la estación: Murcia-Puente Tocinos
Diario Informe para Diciembre 28, 2019 Unidades:  Ambas    Ingés   Métrico
Diario Semanal Mensual Anual
  Máxima: Mínima: Promedio:
Temperatura: 61.2 °F /  16.2 °C 43.3 °F /  6.3 °C 51.1 °F /  10.6 °C
Punto de rocio: 51.3 °F /  10.7 °C 42.1 °F /  5.6 °C 46.4 °F /  8 °C
Humedad: 97% 65.5% 85%
Velocidad viento: 10mph /  16.1km/h - 3.5mph /  5.6km/h
Racha viento: 17.5mph /  28.2km/h - -
Viento- - ESE
Presión: 30.4 in /  1030.8 hPa 30.3 in /  1027.1 hPa -
Precipitación: 0 in /  0.0 mm    
 
 
Tabla de datos para Diciembre 28, 2019
Hora Temperatura Punto de rocio Presión Viento Velocidad viento Racha viento Humedad Intensidad lluvia(por hora) Nubes
00:04 49.3 °F /  9.6 °C 46 °F /  7.8 °C 30.4in /  1027.8hPa ENE 2.5mph /  4.1km/h 5mph /  8km/h 88.3% 0in /  0.0mm
00:09 49.3 °F /  9.6 °C 46.2 °F /  7.9 °C 30.4in /  1027.8hPa ENE 2.4mph /  3.9km/h 4mph /  6.4km/h 89% 0in /  0.0mm
00:14 49.3 °F /  9.6 °C 46.2 °F /  7.9 °C 30.4in /  1027.8hPa ENE 1.8mph /  2.9km/h 2.9mph /  4.7km/h 89% 0in /  0.0mm
00:19 49.5 °F /  9.7 °C 46.4 °F /  8 °C 30.4in /  1027.8hPa ENE 1.4mph /  2.2km/h 3mph /  4.8km/h 89% 0in /  0.0mm
00:24 49.5 °F /  9.7 °C 46.2 °F /  7.9 °C 30.4in /  1027.8hPa ENE 1.4mph /  2.2km/h 3mph /  4.8km/h 89% 0in /  0.0mm
00:29 49.3 °F /  9.6 °C 46.2 °F /  7.9 °C 30.4in /  1027.7hPa ENE 1.4mph /  2.2km/h 3.6mph /  5.8km/h 89% 0in /  0.0mm
00:34 49.3 °F /  9.6 °C 46.2 °F /  7.9 °C 30.4in /  1027.7hPa ENE 1.4mph /  2.2km/h 4mph /  6.4km/h 89% 0in /  0.0mm
00:39 49.1 °F /  9.5 °C 46 °F /  7.8 °C 30.4in /  1027.7hPa ENE 1.4mph /  2.2km/h 4mph /  6.4km/h 89% 0in /  0.0mm
00:44 48.9 °F /  9.4 °C 45.9 °F /  7.7 °C 30.3in /  1027.6hPa Este 1.7mph /  2.8km/h 5mph /  8km/h 89% 0in /  0.0mm
00:49 48.9 °F /  9.4 °C 45.9 °F /  7.7 °C 30.3in /  1027.6hPa SE 2mph /  3.2km/h 5mph /  8km/h 89% 0in /  0.0mm
00:54 48.9 °F /  9.4 °C 45.9 °F /  7.7 °C 30.3in /  1027.6hPa SE 2mph /  3.2km/h 3.5mph /  5.6km/h 89% 0in /  0.0mm
00:59 48.9 °F /  9.4 °C 45.9 °F /  7.7 °C 30.3in /  1027.5hPa SE 2mph /  3.2km/h 3.5mph /  5.6km/h 89% 0in /  0.0mm
01:04 48.9 °F /  9.4 °C 45.9 °F /  7.7 °C 30.3in /  1027.5hPa SE 1.9mph /  3km/h 3mph /  4.8km/h 89% 0in /  0.0mm
01:09 48.9 °F /  9.4 °C 45.7 °F /  7.6 °C 30.3in /  1027.5hPa SE 1.8mph /  2.9km/h 2.4mph /  3.9km/h 88.6% 0in /  0.0mm
01:14 48.7 °F /  9.3 °C 45.3 °F /  7.4 °C 30.3in /  1027.5hPa SE 0.7mph /  1.1km/h 3.6mph /  5.8km/h 88% 0in /  0.0mm
01:19 48.2 °F /  9 °C 44.6 °F /  7 °C 30.3in /  1027.5hPa Calm   4.6mph /  7.4km/h 87.1% 0in /  0.0mm
01:24 47.8 °F /  8.8 °C 44.4 °F /  6.9 °C 30.3in /  1027.5hPa NNO 1.4mph /  2.3km/h 5mph /  8km/h 87.9% 0in /  0.0mm
01:29 47.5 °F /  8.6 °C 44.2 °F /  6.8 °C 30.3in /  1027.5hPa NO 2.4mph /  3.9km/h 5mph /  8km/h 88.4% 0in /  0.0mm
01:34 47.1 °F /  8.4 °C 44.1 °F /  6.7 °C 30.3in /  1027.5hPa NO 2.4mph /  3.9km/h 5mph /  8km/h 89% 0in /  0.0mm
01:39 46.9 °F /  8.3 °C 44.2 °F /  6.8 °C 30.3in /  1027.5hPa NO 2.4mph /  3.9km/h 3mph /  4.8km/h 89.9% 0in /  0.0mm
01:44 46.9 °F /  8.3 °C 44.2 °F /  6.8 °C 30.3in /  1027.5hPa NO 1.8mph /  2.9km/h 2.3mph /  3.7km/h 90% 0in /  0.0mm
01:49 46.9 °F /  8.3 °C 44.4 °F /  6.9 °C 30.3in /  1027.5hPa NO 1.4mph /  2.2km/h   90.8% 0in /  0.0mm
01:54 47.1 °F /  8.4 °C 44.6 °F /  7 °C 30.3in /  1027.5hPa NO 0.6mph /  0.9km/h 2mph /  3.2km/h 91% 0in /  0.0mm
01:59 47.3 °F /  8.5 °C 45 °F /  7.2 °C 30.3in /  1027.4hPa Calm   2.4mph /  3.9km/h 92% 0in /  0.0mm
02:04 47.5 °F /  8.6 °C 45.3 °F /  7.4 °C 30.3in /  1027.4hPa Calm   2.4mph /  3.9km/h 92% 0in /  0.0mm
02:09 47.7 °F /  8.7 °C 45.5 °F /  7.5 °C 30.3in /  1027.4hPa Calm   2.9mph /  4.7km/h 92% 0in /  0.0mm
02:14 47.7 °F /  8.7 °C 45.5 °F /  7.5 °C 30.3in /  1027.3hPa NO 0.8mph /  1.3km/h 3.5mph /  5.6km/h 92% 0in /  0.0mm
02:19 47.8 °F /  8.8 °C 45.5 °F /  7.5 °C 30.3in /  1027.3hPa ONO 1.4mph /  2.2km/h 4.6mph /  7.4km/h 92% 0in /  0.0mm
02:24 47.8 °F /  8.8 °C 45.5 °F /  7.5 °C 30.3in /  1027.4hPa Sur 1.7mph /  2.8km/h 5mph /  8km/h 91.7% 0in /  0.0mm
02:29 47.7 °F /  8.7 °C 45.1 °F /  7.3 °C 30.3in /  1027.4hPa SSE 2mph /  3.2km/h 4.6mph /  7.4km/h 91% 0in /  0.0mm
02:34 47.7 °F /  8.7 °C 45.1 °F /  7.3 °C 30.3in /  1027.4hPa SSE 2mph /  3.2km/h 5mph /  8km/h 91% 0in /  0.0mm
02:39 47.7 °F /  8.7 °C 45.1 °F /  7.3 °C 30.3in /  1027.5hPa SE 2mph /  3.2km/h 4.6mph /  7.4km/h 90.8% 0in /  0.0mm
02:44 47.3 °F /  8.5 °C 44.6 °F /  7 °C 30.3in /  1027.5hPa SE 2mph /  3.2km/h 5mph /  8km/h 90% 0in /  0.0mm
02:49 47.1 °F /  8.4 °C 44.2 °F /  6.8 °C 30.3in /  1027.5hPa SE 2mph /  3.2km/h 5mph /  8km/h 90% 0in /  0.0mm
02:54 47.1 °F /  8.4 °C 44.2 °F /  6.8 °C 30.3in /  1027.5hPa SSE 2mph /  3.2km/h 4.6mph /  7.4km/h 90% 0in /  0.0mm
02:59 47.1 °F /  8.4 °C 44.2 °F /  6.8 °C 30.3in /  1027.5hPa Sur 2mph /  3.2km/h 5mph /  8km/h 90% 0in /  0.0mm
03:04 46.9 °F /  8.3 °C 44.2 °F /  6.8 °C 30.3in /  1027.5hPa Sur 2mph /  3.2km/h 3mph /  4.8km/h 90% 0in /  0.0mm
03:09 46.8 °F /  8.2 °C 44.1 °F /  6.7 °C 30.3in /  1027.5hPa Sur 2mph /  3.2km/h 2.3mph /  3.7km/h 90% 0in /  0.0mm
03:14 46.6 °F /  8.1 °C 43.9 °F /  6.6 °C 30.3in /  1027.5hPa Sur 0.8mph /  1.3km/h 4.6mph /  7.4km/h 89.9% 0in /  0.0mm
03:19 46.2 °F /  7.9 °C 43.2 °F /  6.2 °C 30.3in /  1027.5hPa Calm   5mph /  8km/h 89% 0in /  0.0mm
03:24 45.9 °F /  7.7 °C 43 °F /  6.1 °C 30.3in /  1027.6hPa NO 1.2mph /  1.9km/h 5mph /  8km/h 89.6% 0in /  0.0mm
03:29 45.7 °F /  7.6 °C 43 °F /  6.1 °C 30.3in /  1027.6hPa NNE 2mph /  3.2km/h 4.6mph /  7.4km/h 90% 0in /  0.0mm
03:34 45.7 °F /  7.6 °C 43.2 °F /  6.2 °C 30.3in /  1027.6hPa NNE 2.2mph /  3.6km/h 5mph /  8km/h 90.7% 0in /  0.0mm
03:39 45.7 °F /  7.6 °C 43.2 °F /  6.2 °C 30.4in /  1027.8hPa NNE 2.4mph /  3.9km/h 3.5mph /  5.6km/h 91% 0in /  0.0mm
03:44 45.7 °F /  7.6 °C 43.2 °F /  6.2 °C 30.4in /  1027.8hPa NNE 2.1mph /  3.3km/h 3mph /  4.8km/h 91% 0in /  0.0mm
03:49 45.7 °F /  7.6 °C 43.3 °F /  6.3 °C 30.4in /  1027.8hPa NNE 1.8mph /  2.9km/h 3mph /  4.8km/h 91.2% 0in /  0.0mm
03:54 45.7 °F /  7.6 °C 43.5 °F /  6.4 °C 30.4in /  1027.9hPa NNE 0.7mph /  1.2km/h 2.3mph /  3.7km/h 92% 0in /  0.0mm
03:59 45.7 °F /  7.6 °C 43.5 °F /  6.4 °C 30.4in /  1027.9hPa Calm   3.1mph /  5km/h 92% 0in /  0.0mm
04:04 45.7 °F /  7.6 °C 43.5 °F /  6.4 °C 30.4in /  1027.9hPa NNE 0.9mph /  1.5km/h 4.6mph /  7.4km/h 91.9% 0in /  0.0mm
04:09 45.7 °F /  7.6 °C 43.5 °F /  6.4 °C 30.4in /  1028.0hPa SSO 1.4mph /  2.2km/h 5.2mph /  8.4km/h 91.9% 0in /  0.0mm
04:14 45.7 °F /  7.6 °C 43.5 °F /  6.4 °C 30.4in /  1028.0hPa SSE 2.4mph /  3.9km/h 5mph /  8km/h 92% 0in /  0.0mm
04:19 45.9 °F /  7.7 °C 43.7 °F /  6.5 °C 30.4in /  1028.0hPa SSE 3.1mph /  5km/h 5mph /  8km/h 92% 0in /  0.0mm
04:24 45.9 °F /  7.7 °C 43.7 °F /  6.5 °C 30.4in /  1028.1hPa SE 3mph /  4.8km/h 5mph /  8km/h 92% 0in /  0.0mm
04:29 45.9 °F /  7.7 °C 43.7 °F /  6.5 °C 30.4in /  1028.1hPa Este 2.9mph /  4.6km/h 4mph /  6.4km/h 92% 0in /  0.0mm
04:34 45.9 °F /  7.7 °C 43.5 °F /  6.4 °C 30.4in /  1028.1hPa Este 2.2mph /  3.6km/h 3mph /  4.8km/h 91.5% 0in /  0.0mm
04:39 45.9 °F /  7.7 °C 43.3 °F /  6.3 °C 30.4in /  1028.1hPa Este 1.8mph /  2.9km/h 3.5mph /  5.6km/h 91% 0in /  0.0mm
04:44 45.7 °F /  7.6 °C 43.2 °F /  6.2 °C 30.4in /  1028.1hPa ESE 1.9mph /  3.1km/h 4.6mph /  7.4km/h 91% 0in /  0.0mm
04:49 45.3 °F /  7.4 °C 42.6 °F /  5.9 °C 30.4in /  1028.1hPa SE 2mph /  3.2km/h 5mph /  8km/h 90.1% 0in /  0.0mm
04:54 45.1 °F /  7.3 °C 42.4 °F /  5.8 °C 30.4in /  1028.2hPa ESE 2.2mph /  3.6km/h 5mph /  8km/h 90.4% 0in /  0.0mm
04:59 45 °F /  7.2 °C 42.3 °F /  5.7 °C 30.4in /  1028.2hPa SE 2.4mph /  3.9km/h 4.6mph /  7.4km/h 90% 0in /  0.0mm
05:04 45 °F /  7.2 °C 42.1 °F /  5.6 °C 30.4in /  1028.2hPa Sur 2.4mph /  3.9km/h 5.2mph /  8.4km/h 90% 0in /  0.0mm
05:09 44.8 °F /  7.1 °C 42.3 °F /  5.7 °C 30.4in /  1028.2hPa Sur 2.4mph /  3.9km/h 5mph /  8km/h 91% 0in /  0.0mm
05:14 45 °F /  7.2 °C 42.4 °F /  5.8 °C 30.4in /  1028.1hPa Sur 2.8mph /  4.5km/h 5mph /  8km/h 91% 0in /  0.0mm
05:19 45 °F /  7.2 °C 42.6 °F /  5.9 °C 30.4in /  1028.1hPa SSE 3.1mph /  5km/h 5mph /  8km/h 91% 0in /  0.0mm
05:24 45.1 °F /  7.3 °C 42.8 °F /  6 °C 30.4in /  1028.1hPa SSE 2.4mph /  3.9km/h 5.2mph /  8.4km/h 91% 0in /  0.0mm
05:29 45.3 °F /  7.4 °C 43.2 °F /  6.2 °C 30.4in /  1028.1hPa SSE 2mph /  3.2km/h 5.9mph /  9.5km/h 91.8% 0in /  0.0mm
05:34 45.3 °F /  7.4 °C 42.8 °F /  6 °C 30.4in /  1028.1hPa SE 3mph /  4.8km/h 6mph /  9.7km/h 91.1% 0in /  0.0mm
05:39 45 °F /  7.2 °C 42.8 °F /  6 °C 30.4in /  1028.2hPa SE 3.6mph /  5.8km/h 6mph /  9.7km/h 91.7% 0in /  0.0mm
05:44 45 °F /  7.2 °C 43 °F /  6.1 °C 30.4in /  1028.2hPa SE 3.3mph /  5.3km/h 5mph /  8km/h 92.7% 0in /  0.0mm
05:49 45 °F /  7.2 °C 43.2 °F /  6.2 °C 30.4in /  1028.2hPa SE 3.1mph /  5km/h 5mph /  8km/h 93% 0in /  0.0mm
05:54 45 °F /  7.2 °C 43.2 °F /  6.2 °C 30.4in /  1028.2hPa SE 3.1mph /  5km/h 5.4mph /  8.7km/h 93% 0in /  0.0mm
05:59 44.8 °F /  7.1 °C 43 °F /  6.1 °C 30.4in /  1028.0hPa SE 3.1mph /  5km/h 6mph /  9.7km/h 93% 0in /  0.0mm
06:04 44.8 °F /  7.1 °C 43.2 °F /  6.2 °C 30.4in /  1028.0hPa SE 3.1mph /  5km/h 6mph /  9.7km/h 94% 0in /  0.0mm
06:09 44.8 °F /  7.1 °C 43.2 °F /  6.2 °C 30.4in /  1028.1hPa SE 3.1mph /  5km/h 6mph /  9.7km/h 94% 0in /  0.0mm
06:14 44.8 °F /  7.1 °C 43.3 °F /  6.3 °C 30.4in /  1028.1hPa SE 3mph /  4.8km/h 6mph /  9.7km/h 94.6% 0in /  0.0mm
06:19 45 °F /  7.2 °C 43.5 °F /  6.4 °C 30.4in /  1028.1hPa SSE 2.9mph /  4.7km/h 5.9mph /  9.5km/h 94.7% 0in /  0.0mm
06:24 45 °F /  7.2 °C 43.5 °F /  6.4 °C 30.4in /  1028.1hPa Sur 3mph /  4.9km/h 6mph /  9.7km/h 95% 0in /  0.0mm
06:29 45 °F /  7.2 °C 43.7 °F /  6.5 °C 30.4in /  1028.1hPa SSE 3.1mph /  5km/h 6mph /  9.7km/h 95% 0in /  0.0mm
06:34 45.1 °F /  7.3 °C 43.7 °F /  6.5 °C 30.4in /  1028.1hPa SSE 3.4mph /  5.5km/h 5.8mph /  9.3km/h 95% 0in /  0.0mm
06:39 45.1 °F /  7.3 °C 43.9 °F /  6.6 °C 30.4in /  1028.2hPa Sur 3.6mph /  5.8km/h 6mph /  9.7km/h 95% 0in /  0.0mm
06:44 45.3 °F /  7.4 °C 44.1 °F /  6.7 °C 30.4in /  1028.2hPa SSE 3.3mph /  5.3km/h 5.2mph /  8.4km/h 95.4% 0in /  0.0mm
06:49 45.3 °F /  7.4 °C 44.1 °F /  6.7 °C 30.4in /  1028.2hPa SSE 3.1mph /  5km/h 5mph /  8km/h 95.5% 0in /  0.0mm
06:54 45.3 °F /  7.4 °C 44.2 °F /  6.8 °C 30.4in /  1028.2hPa Sur 3.1mph /  5km/h 5mph /  8km/h 96% 0in /  0.0mm
06:59 45.3 °F /  7.4 °C 44.2 °F /  6.8 °C 30.4in /  1028.2hPa SSE 3.1mph /  5km/h 5mph /  8km/h 96% 0in /  0.0mm
07:04 45.5 °F /  7.5 °C 44.2 °F /  6.8 °C 30.4in /  1028.2hPa SSE 3mph /  4.8km/h 5mph /  8km/h 96% 0in /  0.0mm
07:09 45.7 °F /  7.6 °C 44.6 °F /  7 °C 30.4in /  1028.4hPa SE 2.9mph /  4.6km/h 5mph /  8km/h 96% 0in /  0.0mm
07:14 45.7 °F /  7.6 °C 44.6 °F /  7 °C 30.4in /  1028.4hPa SSE 2.4mph /  3.8km/h 4mph /  6.4km/h 96% 0in /  0.0mm
07:19 45.7 °F /  7.6 °C 44.6 °F /  7 °C 30.4in /  1028.4hPa SE 2mph /  3.2km/h 4.7mph /  7.6km/h 96% 0in /  0.0mm
07:24 45.3 °F /  7.4 °C 44.2 °F /  6.8 °C 30.4in /  1028.7hPa SSE 2.5mph /  4.1km/h 5.2mph /  8.4km/h 96% 0in /  0.0mm
07:29 45.1 °F /  7.3 °C 44.1 °F /  6.7 °C 30.4in /  1028.7hPa SSE 2.9mph /  4.6km/h 5.8mph /  9.3km/h 96% 0in /  0.0mm
07:34 45 °F /  7.2 °C 43.9 °F /  6.6 °C 30.4in /  1028.7hPa SSE 3.3mph /  5.3km/h 6mph /  9.7km/h 96% 0in /  0.0mm
07:39 45 °F /  7.2 °C 43.9 °F /  6.6 °C 30.4in /  1028.7hPa SSE 3.6mph /  5.8km/h 5mph /  8km/h 96% 0in /  0.0mm
07:44 45 °F /  7.2 °C 43.9 °F /  6.6 °C 30.4in /  1028.7hPa SE 3.2mph /  5.1km/h 5mph /  8km/h 96% 0in /  0.0mm
07:49 44.8 °F /  7.1 °C 43.7 °F /  6.5 °C 30.4in /  1028.7hPa SE 2.9mph /  4.7km/h 4.6mph /  7.4km/h 96% 0in /  0.0mm
07:54 44.6 °F /  7 °C 43.5 °F /  6.4 °C 30.4in /  1028.8hPa SE 2.6mph /  4.2km/h 5mph /  8km/h 96% 0in /  0.0mm
07:59 44.4 °F /  6.9 °C 43.3 °F /  6.3 °C 30.4in /  1028.8hPa SE 2.4mph /  3.9km/h 3.1mph /  5km/h 96% 0in /  0.0mm
08:04 44.4 °F /  6.9 °C 43.3 °F /  6.3 °C 30.4in /  1028.8hPa SSE 1.7mph /  2.8km/h 3.6mph /  5.8km/h 96% 0in /  0.0mm
08:09 44.4 °F /  6.9 °C 43.5 °F /  6.4 °C 30.4in /  1029.0hPa OSO 1.4mph /  2.2km/h 4.6mph /  7.4km/h 96.5% 0in /  0.0mm
08:14 44.6 °F /  7 °C 43.7 °F /  6.5 °C 30.4in /  1029.0hPa OSO 1.7mph /  2.8km/h 5mph /  8km/h 96.9% 0in /  0.0mm
08:19 44.4 °F /  6.9 °C 43.5 °F /  6.4 °C 30.4in /  1029.0hPa OSO 2mph /  3.2km/h 5.2mph /  8.4km/h 96% 0in /  0.0mm
08:24 44.4 °F /  6.9 °C 43.3 °F /  6.3 °C 30.4in /  1029.2hPa SO 2.5mph /  4.1km/h 5mph /  8km/h 96% 0in /  0.0mm
08:29 44.4 °F /  6.9 °C 43.3 °F /  6.3 °C 30.4in /  1029.2hPa SO 2.9mph /  4.6km/h 5mph /  8km/h 96% 0in /  0.0mm
08:34 44.4 °F /  6.9 °C 43.3 °F /  6.3 °C 30.4in /  1029.2hPa OSO 2.6mph /  4.2km/h 4.6mph /  7.4km/h 96% 0in /  0.0mm
08:39 44.2 °F /  6.8 °C 43.2 °F /  6.2 °C 30.4in /  1029.2hPa SSO 2.4mph /  3.9km/h 5.2mph /  8.4km/h 96% 0in /  0.0mm
08:44 43.7 °F /  6.5 °C 42.6 °F /  5.9 °C 30.4in /  1029.2hPa SSE 2.7mph /  4.3km/h 5.9mph /  9.5km/h 96% 0in /  0.0mm
08:49 43.3 °F /  6.3 °C 42.4 °F /  5.8 °C 30.4in /  1029.2hPa SSE 2.9mph /  4.7km/h 6mph /  9.7km/h 96% 0in /  0.0mm
08:54 43.3 °F /  6.3 °C 42.3 °F /  5.7 °C 30.4in /  1029.3hPa SSE 3.5mph /  5.7km/h 6.9mph /  11.1km/h 96% 0in /  0.0mm
08:59 43.3 °F /  6.3 °C 42.3 °F /  5.7 °C 30.4in /  1029.3hPa Sur 4mph /  6.5km/h 7mph /  11.3km/h 96.1% 0in /  0.0mm
09:04 43.3 °F /  6.3 °C 42.4 °F /  5.8 °C 30.4in /  1029.3hPa Sur 4.5mph /  7.2km/h 7mph /  11.3km/h 96.4% 0in /  0.0mm
09:09 43.3 °F /  6.3 °C 42.4 °F /  5.8 °C 30.4in /  1029.3hPa Sur 4.7mph /  7.6km/h 6.9mph /  11.1km/h 96.8% 0in /  0.0mm
09:14 43.5 °F /  6.4 °C 42.6 °F /  5.9 °C 30.4in /  1029.2hPa SSO 4.3mph /  6.9km/h 7mph /  11.3km/h 96.5% 0in /  0.0mm
09:19 43.5 °F /  6.4 °C 42.6 °F /  5.9 °C 30.4in /  1029.2hPa SSO 4mph /  6.5km/h 7mph /  11.3km/h 96.9% 0in /  0.0mm
09:24 43.7 °F /  6.5 °C 43 °F /  6.1 °C 30.4in /  1029.2hPa SSO 4.4mph /  7.1km/h 7mph /  11.3km/h 97% 0in /  0.0mm
09:29 44.1 °F /  6.7 °C 43 °F /  6.1 °C 30.4in /  1029.1hPa Sur 4.7mph /  7.6km/h 7mph /  11.3km/h 96.5% 0in /  0.0mm
09:34 44.1 °F /  6.7 °C 43 °F /  6.1 °C 30.4in /  1029.1hPa Sur 4.5mph /  7.2km/h 6mph /  9.7km/h 96% 0in /  0.0mm
09:39 44.1 °F /  6.7 °C 43.2 °F /  6.2 °C 30.4in /  1029.3hPa SSO 4.3mph /  6.9km/h 6mph /  9.7km/h 96% 0in /  0.0mm
09:44 44.2 °F /  6.8 °C 43.3 °F /  6.3 °C 30.4in /  1029.3hPa Sur 3.4mph /  5.5km/h 5mph /  8km/h 96% 0in /  0.0mm
09:49 44.6 °F /  7 °C 43.3 °F /  6.3 °C 30.4in /  1029.3hPa Oeste 2.9mph /  4.6km/h 5.2mph /  8.4km/h 95% 0in /  0.0mm
09:54 44.8 °F /  7.1 °C 43.3 °F /  6.3 °C 30.4in /  1029.8hPa SO 2.4mph /  3.8km/h 5mph /  8km/h 94.2% 0in /  0.0mm
09:59 45 °F /  7.2 °C 43.2 °F /  6.2 °C 30.4in /  1029.8hPa SSO 2mph /  3.2km/h 5.9mph /  9.5km/h 93.6% 0in /  0.0mm
10:04 45.1 °F /  7.3 °C 43.2 °F /  6.2 °C 30.4in /  1029.8hPa SSO 3mph /  4.8km/h 6.2mph /  10km/h 92.6% 0in /  0.0mm
10:09 45.5 °F /  7.5 °C 43.3 °F /  6.3 °C 30.4in /  1030.0hPa SSO 3.6mph /  5.8km/h 6mph /  9.7km/h 91.8% 0in /  0.0mm
10:14 46 °F /  7.8 °C 43.3 °F /  6.3 °C 30.4in /  1030.0hPa SSO 3.6mph /  5.8km/h 6mph /  9.7km/h 90.6% 0in /  0.0mm
10:19 46.4 °F /  8 °C 43.3 °F /  6.3 °C 30.4in /  1030.0hPa SSO 3.6mph /  5.8km/h 6.9mph /  11.1km/h 89.4% 0in /  0.0mm
10:24 46.8 °F /  8.2 °C 43.3 °F /  6.3 °C 30.4in /  1030.0hPa SO 4mph /  6.5km/h 7mph /  11.3km/h 88.2% 0in /  0.0mm
10:29 47.1 °F /  8.4 °C 43.5 °F /  6.4 °C 30.4in /  1029.8hPa SSO 4.3mph /  6.9km/h 7mph /  11.3km/h 87.4% 0in /  0.0mm
10:34 47.5 °F /  8.6 °C 43.3 °F /  6.3 °C 30.4in /  1029.8hPa OSO 3.9mph /  6.2km/h 8.1mph /  13km/h 85.9% 0in /  0.0mm
10:39 47.7 °F /  8.7 °C 43.3 °F /  6.3 °C 30.4in /  1030.1hPa SSO 3.6mph /  5.8km/h 8.1mph /  13km/h 85.1% 0in /  0.0mm
10:44 47.8 °F /  8.8 °C 43.5 °F /  6.4 °C 30.4in /  1030.1hPa SO 4.3mph /  6.9km/h 8mph /  12.9km/h 84.8% 0in /  0.0mm
10:49 48 °F /  8.9 °C 43.7 °F /  6.5 °C 30.4in /  1030.1hPa SSO 4.7mph /  7.6km/h 7mph /  11.3km/h 85% 0in /  0.0mm
10:54 48.6 °F /  9.2 °C 43.9 °F /  6.6 °C 30.4in /  1030.1hPa SSO 4.5mph /  7.2km/h 7.4mph /  11.9km/h 84.1% 0in /  0.0mm
10:59 48.7 °F /  9.3 °C 44.1 °F /  6.7 °C 30.4in /  1030.1hPa Sur 4.3mph /  6.9km/h 8.1mph /  13km/h 83.8% 0in /  0.0mm
11:04 49.1 °F /  9.5 °C 44.2 °F /  6.8 °C 30.4in /  1030.1hPa SSO 4.9mph /  7.9km/h 8mph /  12.9km/h 83% 0in /  0.0mm
11:09 49.5 °F /  9.7 °C 44.6 °F /  7 °C 30.4in /  1030.1hPa Sur 5.2mph /  8.4km/h 6.2mph /  10km/h 83.1% 0in /  0.0mm
11:14 50 °F /  10 °C 44.8 °F /  7.1 °C 30.4in /  1030.1hPa Sur 4.5mph /  7.2km/h 8.1mph /  13km/h 82% 0in /  0.0mm
11:19 50.4 °F /  10.2 °C 44.6 °F /  7 °C 30.4in /  1030.1hPa Sur 4mph /  6.5km/h 8.1mph /  13km/h 80.9% 0in /  0.0mm
11:24 50.5 °F /  10.3 °C 44.6 °F /  7 °C 30.4in /  1030.1hPa Sur 4.4mph /  7.1km/h 8.1mph /  13km/h 80.6% 0in /  0.0mm
11:29 50.5 °F /  10.3 °C 44.6 °F /  7 °C 30.4in /  1029.8hPa SSO 4.7mph /  7.6km/h 8.1mph /  13km/h 80% 0in /  0.0mm
11:34 50.7 °F /  10.4 °C 45 °F /  7.2 °C 30.4in /  1029.8hPa Sur 5.1mph /  8.2km/h 8mph /  12.9km/h 80.2% 0in /  0.0mm
11:39 51.3 °F /  10.7 °C 45.3 °F /  7.4 °C 30.4in /  1029.8hPa SSO 5.4mph /  8.7km/h 7mph /  11.3km/h 80% 0in /  0.0mm
11:44 51.4 °F /  10.8 °C 45.3 °F /  7.4 °C 30.4in /  1029.6hPa SSO 5mph /  8km/h 7.4mph /  11.9km/h 79.1% 0in /  0.0mm
11:49 52 °F /  11.1 °C 45.5 °F /  7.5 °C 30.4in /  1029.6hPa SSO 4.7mph /  7.6km/h 7mph /  11.3km/h 78.5% 0in /  0.0mm
11:54 52.3 °F /  11.3 °C 45.7 °F /  7.6 °C 30.4in /  1029.6hPa SSO 4mph /  6.5km/h 6mph /  9.7km/h 78% 0in /  0.0mm
11:59 53.1 °F /  11.7 °C 45.9 °F /  7.7 °C 30.4in /  1029.3hPa SO 3.6mph /  5.8km/h 5mph /  8km/h 76.2% 0in /  0.0mm
12:04 53.6 °F /  12 °C 45.9 °F /  7.7 °C 30.4in /  1029.3hPa SO 2.4mph /  3.9km/h 5.4mph /  8.7km/h 74.8% 0in /  0.0mm
12:09 54 °F /  12.2 °C 45.9 °F /  7.7 °C 30.4in /  1029.3hPa SSO 1.8mph /  2.9km/h 6mph /  9.7km/h 73.9% 0in /  0.0mm
12:14 54.5 °F /  12.5 °C 46 °F /  7.8 °C 30.4in /  1029.0hPa SSE 1.9mph /  3.1km/h 4mph /  6.4km/h 73% 0in /  0.0mm
12:19 55 °F /  12.8 °C 45.9 °F /  7.7 °C 30.4in /  1029.0hPa SSO 2mph /  3.2km/h 4mph /  6.4km/h 71.2% 0in /  0.0mm
12:24 55.2 °F /  12.9 °C 46 °F /  7.8 °C 30.4in /  1029.0hPa SSO 1.9mph /  3km/h 3mph /  4.8km/h 71% 0in /  0.0mm
12:29 55.9 °F /  13.3 °C 46.2 °F /  7.9 °C 30.4in /  1028.7hPa SE 1.8mph /  2.9km/h 3.6mph /  5.8km/h 69.9% 0in /  0.0mm
12:34 56.7 °F /  13.7 °C 46.4 °F /  8 °C 30.4in /  1028.7hPa ESE 1.6mph /  2.5km/h 4mph /  6.4km/h 68.4% 0in /  0.0mm
12:39 57.2 °F /  14 °C 46.4 °F /  8 °C 30.4in /  1028.7hPa ENE 1.4mph /  2.2km/h 4.7mph /  7.6km/h 67.5% 0in /  0.0mm
12:44 57.6 °F /  14.2 °C 46.6 °F /  8.1 °C 30.4in /  1028.5hPa ENE 1.7mph /  2.8km/h 5mph /  8km/h 67% 0in /  0.0mm
12:49 57.7 °F /  14.3 °C 46.6 °F /  8.1 °C 30.4in /  1028.5hPa ENE 2mph /  3.2km/h 5.2mph /  8.4km/h 66.4% 0in /  0.0mm
12:54 57.6 °F /  14.2 °C 46.6 °F /  8.1 °C 30.4in /  1028.5hPa NE 2.2mph /  3.6km/h 6.9mph /  11.1km/h 66.3% 0in /  0.0mm
12:59 57.4 °F /  14.1 °C 46.9 °F /  8.3 °C 30.4in /  1028.4hPa NE 2.4mph /  3.9km/h 7mph /  11.3km/h 67.9% 0in /  0.0mm
13:04 57.4 °F /  14.1 °C 46.9 °F /  8.3 °C 30.4in /  1028.4hPa NE 2.9mph /  4.6km/h 7mph /  11.3km/h 68% 0in /  0.0mm
13:09 57.6 °F /  14.2 °C 47.1 °F /  8.4 °C 30.4in /  1028.4hPa NE 3.1mph /  5km/h 5.9mph /  9.5km/h 68% 0in /  0.0mm
13:14 57.7 °F /  14.3 °C 47.1 °F /  8.4 °C 30.4in /  1028.1hPa NE 3.1mph /  5km/h 6mph /  9.7km/h 68% 0in /  0.0mm
13:19 57.9 °F /  14.4 °C 47.5 °F /  8.6 °C 30.4in /  1028.1hPa NNE 3.1mph /  5km/h 6.2mph /  10km/h 68% 0in /  0.0mm
13:24 58.1 °F /  14.5 °C 47.5 °F /  8.6 °C 30.4in /  1028.1hPa NNE 3.1mph /  5km/h 6mph /  9.7km/h 67.8% 0in /  0.0mm
13:29 58.5 °F /  14.7 °C 47.8 °F /  8.8 °C 30.4in /  1027.9hPa NE 3.1mph /  5km/h 6.2mph /  10km/h 68% 0in /  0.0mm
13:34 58.6 °F /  14.8 °C 48 °F /  8.9 °C 30.4in /  1027.9hPa NNE 3.4mph /  5.5km/h 7.4mph /  11.9km/h 67.8% 0in /  0.0mm
13:39 58.8 °F /  14.9 °C 48.4 °F /  9.1 °C 30.4in /  1027.9hPa NNE 3.6mph /  5.8km/h 7.6mph /  12.2km/h 68% 0in /  0.0mm
13:44 59.2 °F /  15.1 °C 48.6 °F /  9.2 °C 30.3in /  1027.6hPa NNE 4mph /  6.5km/h 8.1mph /  13km/h 68% 0in /  0.0mm
13:49 59.2 °F /  15.1 °C 48.6 °F /  9.2 °C 30.3in /  1027.6hPa NE 4.3mph /  6.9km/h 9.2mph /  14.8km/h 68% 0in /  0.0mm
13:54 59.4 °F /  15.2 °C 48.7 °F /  9.3 °C 30.3in /  1027.6hPa NE 5mph /  8km/h 10.4mph /  16.7km/h 68% 0in /  0.0mm
13:59 59.4 °F /  15.2 °C 48.9 °F /  9.4 °C 30.3in /  1027.5hPa NNE 5.4mph /  8.7km/h 11.8mph /  19km/h 68% 0in /  0.0mm
14:04 59.5 °F /  15.3 °C 48.9 °F /  9.4 °C 30.3in /  1027.5hPa NNE 6mph /  9.6km/h 13mph /  20.9km/h 68.1% 0in /  0.0mm
14:09 59.5 °F /  15.3 °C 49.5 °F /  9.7 °C 30.3in /  1027.5hPa NNE 6.2mph /  10km/h 13mph /  20.9km/h 69% 0in /  0.0mm
14:14 59.9 °F /  15.5 °C 49.8 °F /  9.9 °C 30.3in /  1027.4hPa NE 6.6mph /  10.6km/h 12.7mph /  20.4km/h 69% 0in /  0.0mm
14:19 60.3 °F /  15.7 °C 50.2 °F /  10.1 °C 30.3in /  1027.4hPa NE 6.9mph /  11.1km/h 13.8mph /  22.2km/h 69.3% 0in /  0.0mm
14:24 60.6 °F /  15.9 °C 50.7 °F /  10.4 °C 30.3in /  1027.4hPa NE 7.2mph /  11.6km/h 14mph /  22.5km/h 69.9% 0in /  0.0mm
14:29 61 °F /  16.1 °C 50.5 °F /  10.3 °C 30.3in /  1027.4hPa NE 7.4mph /  11.9km/h 15mph /  24.1km/h 68.6% 0in /  0.0mm
14:34 61 °F /  16.1 °C 50.4 °F /  10.2 °C 30.3in /  1027.4hPa NE 7.8mph /  12.6km/h 15mph /  24.1km/h 68% 0in /  0.0mm
14:39 61.2 °F /  16.2 °C 50.5 °F /  10.3 °C 30.3in /  1027.4hPa NE 8.1mph /  13km/h 14mph /  22.5km/h 68.3% 0in /  0.0mm
14:44 61.2 °F /  16.2 °C 50.2 °F /  10.1 °C 30.3in /  1027.2hPa NE 8.3mph /  13.4km/h 15mph /  24.1km/h 67.5% 0in /  0.0mm
14:49 61.2 °F /  16.2 °C 50.4 °F /  10.2 °C 30.3in /  1027.2hPa NNE 8.5mph /  13.7km/h 15mph /  24.1km/h 67.5% 0in /  0.0mm
14:54 61.2 °F /  16.2 °C 50.5 °F /  10.3 °C 30.3in /  1027.2hPa NNE 8.6mph /  13.9km/h 15.2mph /  24.5km/h 68% 0in /  0.0mm
14:59 61.2 °F /  16.2 °C 50.5 °F /  10.3 °C 30.3in /  1027.1hPa NNE 8.7mph /  14km/h 15.2mph /  24.5km/h 68% 0in /  0.0mm
15:04 61 °F /  16.1 °C 50.7 °F /  10.4 °C 30.3in /  1027.1hPa NNE 9.5mph /  15.3km/h 15.2mph /  24.5km/h 68.8% 0in /  0.0mm
15:09 60.8 °F /  16 °C 50.7 °F /  10.4 °C 30.3in /  1027.1hPa NNE 10mph /  16.1km/h 17.5mph /  28.2km/h 69.1% 0in /  0.0mm
15:14 60.6 °F /  15.9 °C 50.5 °F /  10.3 °C 30.3in /  1027.1hPa NE 10mph /  16.1km/h 17mph /  27.4km/h 69.5% 0in /  0.0mm
15:19 60.6 °F /  15.9 °C 51.1 °F /  10.6 °C 30.3in /  1027.1hPa NNE 10mph /  16.1km/h 15mph /  24.1km/h 70.5% 0in /  0.0mm
15:24 60.6 °F /  15.9 °C 51.3 °F /  10.7 °C 30.3in /  1027.2hPa NE 9.2mph /  14.8km/h 16.1mph /  25.9km/h 70.9% 0in /  0.0mm
15:29 60.8 °F /  16 °C 51.1 °F /  10.6 °C 30.3in /  1027.2hPa NNE 8.7mph /  14km/h 16mph /  25.7km/h 70.6% 0in /  0.0mm
15:34 60.8 °F /  16 °C 51.1 °F /  10.6 °C 30.3in /  1027.2hPa NE 8.3mph /  13.4km/h 15mph /  24.1km/h 70.3% 0in /  0.0mm
15:39 60.8 °F /  16 °C 50.9 °F /  10.5 °C 30.3in /  1027.2hPa NE 8.1mph /  13km/h 15mph /  24.1km/h 69.7% 0in /  0.0mm
15:44 61 °F /  16.1 °C 50.5 °F /  10.3 °C 30.3in /  1027.2hPa NE 7.6mph /  12.3km/h 14mph /  22.5km/h 68.7% 0in /  0.0mm
15:49 60.8 °F /  16 °C 49.8 °F /  9.9 °C 30.3in /  1027.2hPa NE 7.4mph /  11.9km/h 16.1mph /  25.9km/h 67% 0in /  0.0mm
15:54 61 °F /  16.1 °C 50 °F /  10 °C 30.3in /  1027.4hPa NE 7.8mph /  12.6km/h 16mph /  25.7km/h 67.3% 0in /  0.0mm
15:59 60.8 °F /  16 °C 49.6 °F /  9.8 °C 30.3in /  1027.4hPa NE 8.1mph /  13km/h 13mph /  20.9km/h 66.6% 0in /  0.0mm
16:04 60.8 °F /  16 °C 49.8 °F /  9.9 °C 30.3in /  1027.4hPa NE 7.8mph /  12.5km/h 13mph /  20.9km/h 67% 0in /  0.0mm
16:09 61 °F /  16.1 °C 49.6 °F /  9.8 °C 30.3in /  1027.5hPa NE 7.6mph /  12.2km/h 11.5mph /  18.5km/h 66.5% 0in /  0.0mm
16:14 61 °F /  16.1 °C 49.3 °F /  9.6 °C 30.3in /  1027.5hPa NE 6.7mph /  10.8km/h 12.7mph /  20.4km/h 65.7% 0in /  0.0mm
16:19 60.6 °F /  15.9 °C 49.1 °F /  9.5 °C 30.3in /  1027.5hPa NE 6.2mph /  10km/h 13mph /  20.9km/h 65.5% 0in /  0.0mm
16:24 60.6 °F /  15.9 °C 49.3 °F /  9.6 °C 30.3in /  1027.6hPa NE 6.6mph /  10.6km/h 12mph /  19.3km/h 66% 0in /  0.0mm
16:29 60.6 °F /  15.9 °C 49.1 °F /  9.5 °C 30.3in /  1027.6hPa NE 6.9mph /  11.1km/h 12.7mph /  20.4km/h 65.7% 0in /  0.0mm
16:34 60.6 °F /  15.9 °C 49.5 °F /  9.7 °C 30.3in /  1027.6hPa ENE 6.3mph /  10.1km/h 13mph /  20.9km/h 66.7% 0in /  0.0mm
16:39 60.6 °F /  15.9 °C 49.8 °F /  9.9 °C 30.3in /  1027.6hPa NE 5.9mph /  9.5km/h 8.5mph /  13.7km/h 67.4% 0in /  0.0mm
16:44 60.4 °F /  15.8 °C 49.8 °F /  9.9 °C 30.3in /  1027.5hPa NE 5.2mph /  8.4km/h 11.5mph /  18.5km/h 68.1% 0in /  0.0mm
16:49 60.3 °F /  15.7 °C 50 °F /  10 °C 30.3in /  1027.5hPa NE 4.7mph /  7.6km/h 12mph /  19.3km/h 69% 0in /  0.0mm
16:54 60.1 °F /  15.6 °C 50.2 °F /  10.1 °C 30.3in /  1027.6hPa NE 5.5mph /  8.8km/h 10.7mph /  17.2km/h 69.5% 0in /  0.0mm
16:59 59.9 °F /  15.5 °C 50 °F /  10 °C 30.3in /  1027.6hPa NE 5.9mph /  9.5km/h 11mph /  17.7km/h 70% 0in /  0.0mm
17:04 59.7 °F /  15.4 °C 50 °F /  10 °C 30.3in /  1027.6hPa NE 5.9mph /  9.5km/h 10.4mph /  16.7km/h 70% 0in /  0.0mm
17:09 59.7 °F /  15.4 °C 49.8 °F /  9.9 °C 30.4in /  1027.9hPa NE 5.9mph /  9.5km/h 10mph /  16.1km/h 70% 0in /  0.0mm
17:14 59.5 °F /  15.3 °C 50 °F /  10 °C 30.4in /  1027.9hPa NE 4.7mph /  7.6km/h 8.1mph /  13km/h 70.7% 0in /  0.0mm
17:19 59.5 °F /  15.3 °C 50 °F /  10 °C 30.4in /  1027.9hPa NE 4mph /  6.5km/h 8mph /  12.9km/h 71% 0in /  0.0mm
17:24 59.4 °F /  15.2 °C 50 °F /  10 °C 30.4in /  1028.0hPa ENE 3.8mph /  6.1km/h 7mph /  11.3km/h 71% 0in /  0.0mm
17:29 59.2 °F /  15.1 °C 49.8 °F /  9.9 °C 30.4in /  1028.0hPa ENE 3.6mph /  5.8km/h 7mph /  11.3km/h 71% 0in /  0.0mm
17:34 59.2 °F /  15.1 °C 49.8 °F /  9.9 °C 30.4in /  1028.0hPa ESE 3.3mph /  5.3km/h 5mph /  8km/h 71% 0in /  0.0mm
17:39 58.8 °F /  14.9 °C 49.5 °F /  9.7 °C 30.4in /  1028.0hPa ENE 3.1mph /  5km/h 6.9mph /  11.1km/h 71% 0in /  0.0mm
17:44 58.6 °F /  14.8 °C 49.3 °F /  9.6 °C 30.4in /  1027.9hPa ENE 3.1mph /  5km/h 7mph /  11.3km/h 71% 0in /  0.0mm
17:49 58.5 °F /  14.7 °C 49.5 °F /  9.7 °C 30.4in /  1027.9hPa Este 3.1mph /  5km/h 5.9mph /  9.5km/h 71.9% 0in /  0.0mm
17:54 58.1 °F /  14.5 °C 49.3 °F /  9.6 °C 30.4in /  1028.1hPa Este 3.1mph /  5km/h 7.4mph /  11.9km/h 72.3% 0in /  0.0mm
17:59 57.7 °F /  14.3 °C 49.3 °F /  9.6 °C 30.4in /  1028.1hPa Este 3.1mph /  5km/h 7mph /  11.3km/h 73.1% 0in /  0.0mm
18:04 57.6 °F /  14.2 °C 49.3 °F /  9.6 °C 30.4in /  1028.1hPa Este 3.9mph /  6.2km/h 7mph /  11.3km/h 74% 0in /  0.0mm
18:09 57.4 °F /  14.1 °C 49.3 °F /  9.6 °C 30.4in /  1028.1hPa ENE 4.3mph /  6.9km/h 6.2mph /  10km/h 74.5% 0in /  0.0mm
18:14 57 °F /  13.9 °C 49.3 °F /  9.6 °C 30.4in /  1028.1hPa NE 3.6mph /  5.8km/h 6mph /  9.7km/h 75% 0in /  0.0mm
18:19 56.8 °F /  13.8 °C 49.5 °F /  9.7 °C 30.4in /  1028.1hPa NE 3.1mph /  5km/h 6mph /  9.7km/h 75.9% 0in /  0.0mm
18:24 56.7 °F /  13.7 °C 49.3 °F /  9.6 °C 30.4in /  1028.4hPa NE 3.9mph /  6.2km/h 7.6mph /  12.2km/h 76.2% 0in /  0.0mm
18:29 56.7 °F /  13.7 °C 49.5 °F /  9.7 °C 30.4in /  1028.4hPa NE 4.3mph /  6.9km/h 9.2mph /  14.8km/h 77.1% 0in /  0.0mm
18:34 56.1 °F /  13.4 °C 49.5 °F /  9.7 °C 30.4in /  1028.4hPa NE 4.8mph /  7.8km/h 9mph /  14.5km/h 78.1% 0in /  0.0mm
18:39 55.8 °F /  13.2 °C 49.3 °F /  9.6 °C 30.4in /  1028.6hPa NE 5.2mph /  8.4km/h 7mph /  11.3km/h 79% 0in /  0.0mm
18:44 55.2 °F /  12.9 °C 49.3 °F /  9.6 °C 30.4in /  1028.6hPa NE 4.7mph /  7.5km/h 8.1mph /  13km/h 80.1% 0in /  0.0mm
18:49 54.9 °F /  12.7 °C 49.3 °F /  9.6 °C 30.4in /  1028.6hPa NNE 4.3mph /  6.9km/h 8.1mph /  13km/h 81.6% 0in /  0.0mm
18:54 54.3 °F /  12.4 °C 49.3 °F /  9.6 °C 30.4in /  1028.8hPa NE 4.8mph /  7.8km/h 8mph /  12.9km/h 82.7% 0in /  0.0mm
18:59 54.1 °F /  12.3 °C 49.1 °F /  9.5 °C 30.4in /  1028.8hPa NE 5.2mph /  8.4km/h 6.9mph /  11.1km/h 83.4% 0in /  0.0mm
19:04 54 °F /  12.2 °C 49.1 °F /  9.5 °C 30.4in /  1028.8hPa NNE 4.6mph /  7.4km/h 8.5mph /  13.7km/h 84.1% 0in /  0.0mm
19:09 53.6 °F /  12 °C 49.1 °F /  9.5 °C 30.4in /  1029.1hPa NNE 4.3mph /  6.9km/h 9mph /  14.5km/h 85% 0in /  0.0mm
19:14 53.2 °F /  11.8 °C 49.1 °F /  9.5 °C 30.4in /  1029.1hPa NNE 4.8mph /  7.8km/h 8mph /  12.9km/h 85.6% 0in /  0.0mm
19:19 53.2 °F /  11.8 °C 49.3 °F /  9.6 °C 30.4in /  1029.1hPa NNE 5.2mph /  8.4km/h 6mph /  9.7km/h 86% 0in /  0.0mm
19:24 53.2 °F /  11.8 °C 49.5 °F /  9.7 °C 30.4in /  1029.1hPa NNE 4.2mph /  6.8km/h 6.2mph /  10km/h 86.9% 0in /  0.0mm
19:29 53.1 °F /  11.7 °C 49.3 °F /  9.6 °C 30.4in /  1029.1hPa NNE 3.6mph /  5.8km/h 8.1mph /  13km/h 87% 0in /  0.0mm
19:34 52.9 °F /  11.6 °C 49.5 °F /  9.7 °C 30.4in /  1029.1hPa NNE 4.2mph /  6.8km/h 8.1mph /  13km/h 87.9% 0in /  0.0mm
19:39 52.9 °F /  11.6 °C 49.5 °F /  9.7 °C 30.4in /  1029.4hPa NE 4.7mph /  7.6km/h 9.2mph /  14.8km/h 88% 0in /  0.0mm
19:44 52.9 °F /  11.6 °C 49.6 °F /  9.8 °C 30.4in /  1029.4hPa NE 4.7mph /  7.6km/h 9mph /  14.5km/h 88.8% 0in /  0.0mm
19:49 52.9 °F /  11.6 °C 49.6 °F /  9.8 °C 30.4in /  1029.4hPa NE 4.7mph /  7.6km/h 8mph /  12.9km/h 89% 0in /  0.0mm
19:54 52.9 °F /  11.6 °C 49.6 °F /  9.8 °C 30.4in /  1029.4hPa NE 4.3mph /  6.9km/h 6mph /  9.7km/h 89% 0in /  0.0mm
19:59 52.9 °F /  11.6 °C 49.6 °F /  9.8 °C 30.4in /  1029.4hPa NE 4mph /  6.5km/h 6mph /  9.7km/h 89% 0in /  0.0mm
20:04 52.9 °F /  11.6 °C 49.6 °F /  9.8 °C 30.4in /  1029.4hPa NE 3.7mph /  6km/h 5.8mph /  9.3km/h 89% 0in /  0.0mm
20:09 52.7 °F /  11.5 °C 49.5 °F /  9.7 °C 30.4in /  1029.5hPa NE 3.6mph /  5.8km/h 6mph /  9.7km/h 89% 0in /  0.0mm
20:14 52.5 °F /  11.4 °C 49.6 °F /  9.8 °C 30.4in /  1029.5hPa NE 3.6mph /  5.8km/h 6mph /  9.7km/h 89.8% 0in /  0.0mm
20:19 52.3 °F /  11.3 °C 49.6 °F /  9.8 °C 30.4in /  1029.5hPa NNE 3.6mph /  5.8km/h 5.8mph /  9.3km/h 90% 0in /  0.0mm
20:24 52.3 °F /  11.3 °C 49.3 °F /  9.6 °C 30.4in /  1029.6hPa NNE 3.3mph /  5.3km/h 6mph /  9.7km/h 89.2% 0in /  0.0mm
20:29 52.2 °F /  11.2 °C 49.1 °F /  9.5 °C 30.4in /  1029.6hPa NNE 3.1mph /  5km/h 6mph /  9.7km/h 89.9% 0in /  0.0mm
20:34 51.8 °F /  11 °C 49.1 °F /  9.5 °C 30.4in /  1029.6hPa NE 3.1mph /  5km/h 6mph /  9.7km/h 90% 0in /  0.0mm
20:39 51.8 °F /  11 °C 49.1 °F /  9.5 °C 30.4in /  1029.7hPa NE 3.1mph /  5km/h 5mph /  8km/h 90.1% 0in /  0.0mm
20:44 51.6 °F /  10.9 °C 49.1 °F /  9.5 °C 30.4in /  1029.7hPa NE 2.4mph /  3.9km/h 4mph /  6.4km/h 91% 0in /  0.0mm
20:49 51.6 °F /  10.9 °C 49.1 °F /  9.5 °C 30.4in /  1029.7hPa NE 2mph /  3.2km/h 4mph /  6.4km/h 91% 0in /  0.0mm
20:54 51.6 °F /  10.9 °C 49.1 °F /  9.5 °C 30.4in /  1029.9hPa NNE 2mph /  3.2km/h 5.2mph /  8.4km/h 91% 0in /  0.0mm
20:59 51.4 °F /  10.8 °C 48.9 °F /  9.4 °C 30.4in /  1029.9hPa NNE 2mph /  3.2km/h 5mph /  8km/h 91% 0in /  0.0mm
21:04 51.3 °F /  10.7 °C 48.7 °F /  9.3 °C 30.4in /  1029.9hPa NE 2.7mph /  4.3km/h 5.2mph /  8.4km/h 91% 0in /  0.0mm
21:09 51.3 °F /  10.7 °C 48.7 °F /  9.3 °C 30.4in /  1030.0hPa NE 3.1mph /  5km/h 5mph /  8km/h 91% 0in /  0.0mm
21:14 51.3 °F /  10.7 °C 48.7 °F /  9.3 °C 30.4in /  1030.0hPa NE 3mph /  4.8km/h 4mph /  6.4km/h 91% 0in /  0.0mm
21:19 51.3 °F /  10.7 °C 48.7 °F /  9.3 °C 30.4in /  1030.0hPa NE 2.9mph /  4.7km/h 3.5mph /  5.6km/h 91% 0in /  0.0mm
21:24 51.1 °F /  10.6 °C 48.6 °F /  9.2 °C 30.4in /  1030.1hPa NNE 2.3mph /  3.7km/h 4.6mph /  7.4km/h 91% 0in /  0.0mm
21:29 50.9 °F /  10.5 °C 48.4 °F /  9.1 °C 30.4in /  1030.1hPa NE 2mph /  3.2km/h 5mph /  8km/h 91% 0in /  0.0mm
21:34 50.7 °F /  10.4 °C 48.2 °F /  9 °C 30.4in /  1030.1hPa NE 2.2mph /  3.6km/h 5mph /  8km/h 91% 0in /  0.0mm
21:39 50.5 °F /  10.3 °C 48 °F /  8.9 °C 30.4in /  1030.3hPa NE 2.4mph /  3.9km/h 4.6mph /  7.4km/h 91% 0in /  0.0mm
21:44 50.4 °F /  10.2 °C 47.8 °F /  8.8 °C 30.4in /  1030.3hPa NNE 2.2mph /  3.5km/h 5mph /  8km/h 91% 0in /  0.0mm
21:49 50.2 °F /  10.1 °C 47.7 °F /  8.7 °C 30.4in /  1030.3hPa NNE 2mph /  3.2km/h 5mph /  8km/h 91% 0in /  0.0mm
21:54 50.2 °F /  10.1 °C 47.7 °F /  8.7 °C 30.4in /  1030.3hPa NNE 2.2mph /  3.6km/h 5mph /  8km/h 91.5% 0in /  0.0mm
21:59 49.8 °F /  9.9 °C 47.7 °F /  8.7 °C 30.4in /  1030.3hPa NNE 2.4mph /  3.9km/h 4.7mph /  7.6km/h 92% 0in /  0.0mm
22:04 49.8 °F /  9.9 °C 47.7 °F /  8.7 °C 30.4in /  1030.3hPa NE 2.2mph /  3.5km/h 5mph /  8km/h 92% 0in /  0.0mm
22:09 49.6 °F /  9.8 °C 47.5 °F /  8.6 °C 30.4in /  1030.5hPa NE 2mph /  3.2km/h 5mph /  8km/h 92% 0in /  0.0mm
22:14 49.6 °F /  9.8 °C 47.5 °F /  8.6 °C 30.4in /  1030.5hPa ENE 2.2mph /  3.6km/h 5mph /  8km/h 92% 0in /  0.0mm
22:19 49.5 °F /  9.7 °C 47.3 °F /  8.5 °C 30.4in /  1030.5hPa ESE 2.4mph /  3.9km/h 5.2mph /  8.4km/h 92% 0in /  0.0mm
22:24 49.5 °F /  9.7 °C 47.1 °F /  8.4 °C 30.4in /  1030.5hPa ESE 2.2mph /  3.5km/h 5mph /  8km/h 92% 0in /  0.0mm
22:29 49.5 °F /  9.7 °C 47.1 °F /  8.4 °C 30.4in /  1030.5hPa SE 2mph /  3.2km/h 4.6mph /  7.4km/h 92% 0in /  0.0mm
22:34 49.5 °F /  9.7 °C 47.3 °F /  8.5 °C 30.4in /  1030.5hPa SE 2mph /  3.2km/h 5mph /  8km/h 92% 0in /  0.0mm
22:39 49.8 °F /  9.9 °C 47.7 °F /  8.7 °C 30.4in /  1030.6hPa SSE 2mph /  3.2km/h 6.9mph /  11.1km/h 92.4% 0in /  0.0mm
22:44 49.8 °F /  9.9 °C 47.7 °F /  8.7 °C 30.4in /  1030.6hPa Sur 3.2mph /  5.2km/h 7mph /  11.3km/h 92% 0in /  0.0mm
22:49 49.8 °F /  9.9 °C 47.7 °F /  8.7 °C 30.4in /  1030.6hPa Sur 4mph /  6.5km/h 5.9mph /  9.5km/h 92% 0in /  0.0mm
22:54 49.8 °F /  9.9 °C 47.7 °F /  8.7 °C 30.4in /  1030.6hPa Sur 3.5mph /  5.6km/h 6mph /  9.7km/h 92% 0in /  0.0mm
22:59 49.8 °F /  9.9 °C 47.7 °F /  8.7 °C 30.4in /  1030.5hPa Sur 3.1mph /  5km/h 6mph /  9.7km/h 92% 0in /  0.0mm
23:04 50 °F /  10 °C 47.8 °F /  8.8 °C 30.4in /  1030.5hPa SSO 3mph /  4.8km/h 5.2mph /  8.4km/h 92% 0in /  0.0mm
23:09 50 °F /  10 °C 47.5 °F /  8.6 °C 30.4in /  1030.5hPa SSO 2.9mph /  4.6km/h 5mph /  8km/h 91.1% 0in /  0.0mm
23:14 50 °F /  10 °C 47.5 °F /  8.6 °C 30.4in /  1030.5hPa SSO 2.9mph /  4.7km/h 5mph /  8km/h 91% 0in /  0.0mm
23:19 50 °F /  10 °C 47.5 °F /  8.6 °C 30.4in /  1030.5hPa SSO 2.9mph /  4.7km/h 4mph /  6.4km/h 91% 0in /  0.0mm
23:24 50 °F /  10 °C 47.5 °F /  8.6 °C 30.4in /  1030.5hPa SSO 2.4mph /  3.8km/h 5.2mph /  8.4km/h 91% 0in /  0.0mm
23:29 50 °F /  10 °C 47.5 °F /  8.6 °C 30.4in /  1030.5hPa SO 2mph /  3.2km/h 5mph /  8km/h 91% 0in /  0.0mm
23:34 50 °F /  10 °C 47.5 °F /  8.6 °C 30.4in /  1030.5hPa SO 2.5mph /  4.1km/h 5mph /  8km/h 91% 0in /  0.0mm
23:39 50.2 °F /  10.1 °C 47.7 °F /  8.7 °C 30.4in /  1030.7hPa SO 2.9mph /  4.6km/h 5mph /  8km/h 91% 0in /  0.0mm
23:44 50.2 °F /  10.1 °C 47.7 °F /  8.7 °C 30.4in /  1030.7hPa SO 2.4mph /  3.8km/h 4mph /  6.4km/h 91% 0in /  0.0mm
23:49 50 °F /  10 °C 47.5 °F /  8.6 °C 30.4in /  1030.7hPa SO 2mph /  3.2km/h 4mph /  6.4km/h 91% 0in /  0.0mm
23:54 50 °F /  10 °C 47.5 °F /  8.6 °C 30.4in /  1030.8hPa SSO 0.8mph /  1.3km/h 4.6mph /  7.4km/h 91% 0in /  0.0mm
23:59 49.6 °F /  9.8 °C 46.9 °F /  8.3 °C 30.4in /  1030.8hPa Calm   5mph /  8km/h 90% 0in /  0.0mm
Murcia-Puente Tocinos, España
Compliments of Weather Underground - 3 mb

La estación de MeteoMurcia.com, publica sus datos en los siguientes proyectos:

Weather Underground PWS IMURCIAP2 Meteoclimatic www.awekas.at

W3Counter
Web Analytics